sensor_id;sensor_type;location;lat;lon;timestamp;P1;durP1;ratioP1;P2;durP2;ratioP2
57467;SDS011;43311;51.196;7.518;2024-02-21T00:02:03;14.98;;;5.47;;
57467;SDS011;43311;51.196;7.518;2024-02-21T00:04:29;23.50;;;6.88;;
57467;SDS011;43311;51.196;7.518;2024-02-21T00:06:54;18.60;;;6.65;;
57467;SDS011;43311;51.196;7.518;2024-02-21T00:09:20;19.40;;;6.10;;
57467;SDS011;43311;51.196;7.518;2024-02-21T00:11:45;19.13;;;6.00;;
57467;SDS011;43311;51.196;7.518;2024-02-21T00:14:11;18.10;;;6.15;;
57467;SDS011;43311;51.196;7.518;2024-02-21T00:16:36;16.92;;;6.00;;
57467;SDS011;43311;51.196;7.518;2024-02-21T00:19:01;16.58;;;6.45;;
57467;SDS011;43311;51.196;7.518;2024-02-21T00:21:27;18.77;;;6.78;;
57467;SDS011;43311;51.196;7.518;2024-02-21T00:23:52;23.42;;;7.70;;
57467;SDS011;43311;51.196;7.518;2024-02-21T00:26:17;16.48;;;5.95;;
57467;SDS011;43311;51.196;7.518;2024-02-21T00:28:43;23.25;;;6.70;;
57467;SDS011;43311;51.196;7.518;2024-02-21T00:31:08;24.10;;;6.75;;
57467;SDS011;43311;51.196;7.518;2024-02-21T00:33:34;18.42;;;6.05;;
57467;SDS011;43311;51.196;7.518;2024-02-21T00:35:59;19.75;;;6.75;;
57467;SDS011;43311;51.196;7.518;2024-02-21T00:38:24;25.13;;;6.72;;
57467;SDS011;43311;51.196;7.518;2024-02-21T00:40:50;19.80;;;7.30;;
57467;SDS011;43311;51.196;7.518;2024-02-21T00:43:15;28.60;;;7.45;;
57467;SDS011;43311;51.196;7.518;2024-02-21T00:45:40;17.85;;;6.20;;
57467;SDS011;43311;51.196;7.518;2024-02-21T00:48:06;22.00;;;7.07;;
57467;SDS011;43311;51.196;7.518;2024-02-21T00:50:31;31.48;;;8.25;;
57467;SDS011;43311;51.196;7.518;2024-02-21T00:52:57;24.55;;;6.43;;
57467;SDS011;43311;51.196;7.518;2024-02-21T00:55:22;23.15;;;6.07;;
57467;SDS011;43311;51.196;7.518;2024-02-21T00:57:48;21.23;;;6.55;;
57467;SDS011;43311;51.196;7.518;2024-02-21T01:00:13;27.27;;;7.43;;
57467;SDS011;43311;51.196;7.518;2024-02-21T01:02:39;21.00;;;7.47;;
57467;SDS011;43311;51.196;7.518;2024-02-21T01:05:04;17.80;;;6.38;;
57467;SDS011;43311;51.196;7.518;2024-02-21T01:07:30;25.55;;;6.78;;
57467;SDS011;43311;51.196;7.518;2024-02-21T01:09:55;19.08;;;6.15;;
57467;SDS011;43311;51.196;7.518;2024-02-21T01:12:21;22.98;;;6.43;;
57467;SDS011;43311;51.196;7.518;2024-02-21T01:14:46;18.65;;;7.38;;
57467;SDS011;43311;51.196;7.518;2024-02-21T01:17:12;20.02;;;6.57;;
57467;SDS011;43311;51.196;7.518;2024-02-21T01:19:37;20.75;;;6.13;;
57467;SDS011;43311;51.196;7.518;2024-02-21T01:22:03;23.17;;;6.45;;
57467;SDS011;43311;51.196;7.518;2024-02-21T01:24:29;25.75;;;6.72;;
57467;SDS011;43311;51.196;7.518;2024-02-21T01:26:54;15.98;;;6.18;;
57467;SDS011;43311;51.196;7.518;2024-02-21T01:29:19;18.15;;;6.78;;
57467;SDS011;43311;51.196;7.518;2024-02-21T01:31:45;23.05;;;8.10;;
57467;SDS011;43311;51.196;7.518;2024-02-21T01:34:10;25.10;;;6.95;;
57467;SDS011;43311;51.196;7.518;2024-02-21T01:36:36;21.17;;;6.93;;
57467;SDS011;43311;51.196;7.518;2024-02-21T01:39:01;18.15;;;6.53;;
57467;SDS011;43311;51.196;7.518;2024-02-21T01:41:26;19.65;;;6.88;;
57467;SDS011;43311;51.196;7.518;2024-02-21T01:43:55;21.52;;;6.22;;
57467;SDS011;43311;51.196;7.518;2024-02-21T01:46:20;23.20;;;7.22;;
57467;SDS011;43311;51.196;7.518;2024-02-21T01:48:45;25.67;;;6.72;;
57467;SDS011;43311;51.196;7.518;2024-02-21T01:51:11;17.50;;;6.85;;
57467;SDS011;43311;51.196;7.518;2024-02-21T01:53:37;22.10;;;6.70;;
57467;SDS011;43311;51.196;7.518;2024-02-21T01:58:31;18.27;;;6.53;;
57467;SDS011;43311;51.196;7.518;2024-02-21T02:01:02;17.23;;;7.70;;
57467;SDS011;43311;51.196;7.518;2024-02-21T02:03:27;23.48;;;7.93;;
57467;SDS011;43311;51.196;7.518;2024-02-21T02:05:53;17.63;;;7.55;;
57467;SDS011;43311;51.196;7.518;2024-02-21T02:08:19;20.38;;;6.90;;
57467;SDS011;43311;51.196;7.518;2024-02-21T02:10:45;23.02;;;6.93;;
57467;SDS011;43311;51.196;7.518;2024-02-21T02:13:11;25.52;;;8.57;;
57467;SDS011;43311;51.196;7.518;2024-02-21T02:15:43;22.95;;;7.82;;
57467;SDS011;43311;51.196;7.518;2024-02-21T02:18:10;28.27;;;7.65;;
57467;SDS011;43311;51.196;7.518;2024-02-21T02:20:36;20.17;;;6.88;;
57467;SDS011;43311;51.196;7.518;2024-02-21T02:23:05;21.05;;;6.93;;
57467;SDS011;43311;51.196;7.518;2024-02-21T02:25:35;16.60;;;6.40;;
57467;SDS011;43311;51.196;7.518;2024-02-21T02:28:00;20.10;;;6.82;;
57467;SDS011;43311;51.196;7.518;2024-02-21T02:30:26;18.58;;;7.57;;
57467;SDS011;43311;51.196;7.518;2024-02-21T02:32:51;31.25;;;7.15;;
57467;SDS011;43311;51.196;7.518;2024-02-21T02:35:16;23.42;;;7.72;;
57467;SDS011;43311;51.196;7.518;2024-02-21T02:37:47;23.67;;;6.90;;
57467;SDS011;43311;51.196;7.518;2024-02-21T02:40:14;19.10;;;8.55;;
57467;SDS011;43311;51.196;7.518;2024-02-21T02:42:39;17.48;;;6.45;;
57467;SDS011;43311;51.196;7.518;2024-02-21T02:45:05;16.45;;;7.13;;
57467;SDS011;43311;51.196;7.518;2024-02-21T02:47:30;21.70;;;7.53;;
57467;SDS011;43311;51.196;7.518;2024-02-21T02:49:56;21.83;;;8.15;;
57467;SDS011;43311;51.196;7.518;2024-02-21T02:52:21;20.58;;;6.85;;
57467;SDS011;43311;51.196;7.518;2024-02-21T02:54:47;22.25;;;7.63;;
57467;SDS011;43311;51.196;7.518;2024-02-21T02:57:17;18.80;;;7.80;;
57467;SDS011;43311;51.196;7.518;2024-02-21T02:59:42;17.48;;;6.55;;
57467;SDS011;43311;51.196;7.518;2024-02-21T03:02:13;18.85;;;7.05;;
57467;SDS011;43311;51.196;7.518;2024-02-21T03:04:39;19.83;;;6.55;;
57467;SDS011;43311;51.196;7.518;2024-02-21T03:07:05;19.65;;;6.85;;
57467;SDS011;43311;51.196;7.518;2024-02-21T03:09:31;21.10;;;6.78;;
57467;SDS011;43311;51.196;7.518;2024-02-21T03:11:56;18.08;;;6.95;;
57467;SDS011;43311;51.196;7.518;2024-02-21T03:14:27;25.25;;;6.90;;
57467;SDS011;43311;51.196;7.518;2024-02-21T03:16:53;16.52;;;7.00;;
57467;SDS011;43311;51.196;7.518;2024-02-21T03:19:18;16.70;;;6.05;;
57467;SDS011;43311;51.196;7.518;2024-02-21T03:21:44;26.15;;;7.35;;
57467;SDS011;43311;51.196;7.518;2024-02-21T03:24:09;19.50;;;6.93;;
57467;SDS011;43311;51.196;7.518;2024-02-21T03:26:34;17.98;;;6.72;;
57467;SDS011;43311;51.196;7.518;2024-02-21T03:29:00;16.23;;;6.25;;
57467;SDS011;43311;51.196;7.518;2024-02-21T03:31:25;25.50;;;7.65;;
57467;SDS011;43311;51.196;7.518;2024-02-21T03:33:50;16.90;;;7.18;;
57467;SDS011;43311;51.196;7.518;2024-02-21T03:36:16;16.02;;;6.65;;
57467;SDS011;43311;51.196;7.518;2024-02-21T03:38:41;19.48;;;5.80;;
57467;SDS011;43311;51.196;7.518;2024-02-21T03:41:06;15.48;;;6.63;;
57467;SDS011;43311;51.196;7.518;2024-02-21T03:43:32;16.88;;;6.20;;
57467;SDS011;43311;51.196;7.518;2024-02-21T03:45:57;19.30;;;7.38;;
57467;SDS011;43311;51.196;7.518;2024-02-21T03:48:23;19.85;;;7.07;;
57467;SDS011;43311;51.196;7.518;2024-02-21T03:50:48;26.80;;;6.72;;
57467;SDS011;43311;51.196;7.518;2024-02-21T03:53:13;15.77;;;5.75;;
57467;SDS011;43311;51.196;7.518;2024-02-21T03:55:39;21.25;;;6.60;;
57467;SDS011;43311;51.196;7.518;2024-02-21T03:58:04;21.08;;;6.78;;
57467;SDS011;43311;51.196;7.518;2024-02-21T04:00:29;18.95;;;7.15;;
57467;SDS011;43311;51.196;7.518;2024-02-21T04:02:55;19.00;;;6.05;;
57467;SDS011;43311;51.196;7.518;2024-02-21T04:05:21;20.02;;;6.25;;
57467;SDS011;43311;51.196;7.518;2024-02-21T04:07:46;18.95;;;7.00;;
57467;SDS011;43311;51.196;7.518;2024-02-21T04:10:12;19.33;;;6.70;;
57467;SDS011;43311;51.196;7.518;2024-02-21T04:12:37;15.68;;;6.15;;
57467;SDS011;43311;51.196;7.518;2024-02-21T04:15:03;19.92;;;6.60;;
57467;SDS011;43311;51.196;7.518;2024-02-21T04:17:29;17.13;;;6.18;;
57467;SDS011;43311;51.196;7.518;2024-02-21T04:20:01;22.48;;;6.60;;
57467;SDS011;43311;51.196;7.518;2024-02-21T04:22:30;18.13;;;6.25;;
57467;SDS011;43311;51.196;7.518;2024-02-21T04:24:57;16.90;;;6.53;;
57467;SDS011;43311;51.196;7.518;2024-02-21T04:27:22;22.52;;;6.18;;
57467;SDS011;43311;51.196;7.518;2024-02-21T04:29:48;17.02;;;6.22;;
57467;SDS011;43311;51.196;7.518;2024-02-21T04:32:13;16.75;;;6.45;;
57467;SDS011;43311;51.196;7.518;2024-02-21T04:34:40;18.67;;;6.45;;
57467;SDS011;43311;51.196;7.518;2024-02-21T04:37:06;18.02;;;6.15;;
57467;SDS011;43311;51.196;7.518;2024-02-21T04:39:31;16.33;;;6.75;;
57467;SDS011;43311;51.196;7.518;2024-02-21T04:41:56;14.25;;;5.70;;
57467;SDS011;43311;51.196;7.518;2024-02-21T04:44:22;15.73;;;5.35;;
57467;SDS011;43311;51.196;7.518;2024-02-21T04:46:47;22.35;;;5.90;;
57467;SDS011;43311;51.196;7.518;2024-02-21T04:49:12;18.70;;;6.47;;
57467;SDS011;43311;51.196;7.518;2024-02-21T04:51:39;17.02;;;5.70;;
57467;SDS011;43311;51.196;7.518;2024-02-21T04:54:05;21.83;;;6.85;;
57467;SDS011;43311;51.196;7.518;2024-02-21T04:56:31;15.57;;;6.15;;
57467;SDS011;43311;51.196;7.518;2024-02-21T04:58:56;17.67;;;6.03;;
57467;SDS011;43311;51.196;7.518;2024-02-21T05:01:21;15.70;;;5.85;;
57467;SDS011;43311;51.196;7.518;2024-02-21T05:03:47;19.70;;;5.90;;
57467;SDS011;43311;51.196;7.518;2024-02-21T05:06:12;16.73;;;5.07;;
57467;SDS011;43311;51.196;7.518;2024-02-21T05:08:37;16.48;;;6.18;;
57467;SDS011;43311;51.196;7.518;2024-02-21T05:11:03;15.60;;;5.57;;
57467;SDS011;43311;51.196;7.518;2024-02-21T05:13:28;17.85;;;5.90;;
57467;SDS011;43311;51.196;7.518;2024-02-21T05:15:53;16.58;;;5.13;;
57467;SDS011;43311;51.196;7.518;2024-02-21T05:18:19;14.25;;;5.70;;
57467;SDS011;43311;51.196;7.518;2024-02-21T05:20:45;17.17;;;5.53;;
57467;SDS011;43311;51.196;7.518;2024-02-21T05:23:11;12.13;;;5.57;;
57467;SDS011;43311;51.196;7.518;2024-02-21T05:25:36;17.33;;;6.38;;
57467;SDS011;43311;51.196;7.518;2024-02-21T05:28:01;24.83;;;6.60;;
57467;SDS011;43311;51.196;7.518;2024-02-21T05:30:28;14.35;;;5.35;;
57467;SDS011;43311;51.196;7.518;2024-02-21T05:32:53;15.50;;;5.82;;
57467;SDS011;43311;51.196;7.518;2024-02-21T05:35:19;16.65;;;6.13;;
57467;SDS011;43311;51.196;7.518;2024-02-21T05:37:44;20.52;;;6.30;;
57467;SDS011;43311;51.196;7.518;2024-02-21T05:40:11;20.48;;;5.28;;
57467;SDS011;43311;51.196;7.518;2024-02-21T05:42:38;13.85;;;6.30;;
57467;SDS011;43311;51.196;7.518;2024-02-21T05:45:03;17.00;;;6.55;;
57467;SDS011;43311;51.196;7.518;2024-02-21T05:47:29;14.43;;;5.90;;
57467;SDS011;43311;51.196;7.518;2024-02-21T05:49:54;17.60;;;6.32;;
57467;SDS011;43311;51.196;7.518;2024-02-21T05:52:20;18.40;;;5.45;;
57467;SDS011;43311;51.196;7.518;2024-02-21T05:54:45;20.58;;;6.28;;
57467;SDS011;43311;51.196;7.518;2024-02-21T05:57:11;13.77;;;5.13;;
57467;SDS011;43311;51.196;7.518;2024-02-21T05:59:37;17.80;;;6.18;;
57467;SDS011;43311;51.196;7.518;2024-02-21T06:02:05;15.48;;;6.20;;
57467;SDS011;43311;51.196;7.518;2024-02-21T06:04:30;19.02;;;5.82;;
57467;SDS011;43311;51.196;7.518;2024-02-21T06:06:56;14.15;;;4.75;;
57467;SDS011;43311;51.196;7.518;2024-02-21T06:09:21;14.13;;;5.63;;
57467;SDS011;43311;51.196;7.518;2024-02-21T06:11:46;19.60;;;6.22;;
57467;SDS011;43311;51.196;7.518;2024-02-21T06:14:14;13.70;;;5.55;;
57467;SDS011;43311;51.196;7.518;2024-02-21T06:16:39;21.33;;;6.00;;
57467;SDS011;43311;51.196;7.518;2024-02-21T06:19:04;18.35;;;5.70;;
57467;SDS011;43311;51.196;7.518;2024-02-21T06:21:30;18.58;;;5.63;;
57467;SDS011;43311;51.196;7.518;2024-02-21T06:23:55;14.68;;;5.43;;
57467;SDS011;43311;51.196;7.518;2024-02-21T06:26:20;18.05;;;5.50;;
57467;SDS011;43311;51.196;7.518;2024-02-21T06:28:46;18.10;;;5.45;;
57467;SDS011;43311;51.196;7.518;2024-02-21T06:31:12;12.27;;;5.28;;
57467;SDS011;43311;51.196;7.518;2024-02-21T06:33:37;15.55;;;4.88;;
57467;SDS011;43311;51.196;7.518;2024-02-21T06:36:02;12.13;;;4.95;;
57467;SDS011;43311;51.196;7.518;2024-02-21T06:38:28;11.05;;;4.97;;
57467;SDS011;43311;51.196;7.518;2024-02-21T06:40:53;18.70;;;5.40;;
57467;SDS011;43311;51.196;7.518;2024-02-21T06:43:19;21.33;;;5.90;;
57467;SDS011;43311;51.196;7.518;2024-02-21T06:45:45;20.02;;;5.25;;
57467;SDS011;43311;51.196;7.518;2024-02-21T06:48:15;19.25;;;5.60;;
57467;SDS011;43311;51.196;7.518;2024-02-21T06:50:40;14.18;;;5.05;;
57467;SDS011;43311;51.196;7.518;2024-02-21T06:53:06;12.25;;;5.10;;
57467;SDS011;43311;51.196;7.518;2024-02-21T06:55:31;15.15;;;5.28;;
57467;SDS011;43311;51.196;7.518;2024-02-21T06:57:57;19.00;;;5.65;;
57467;SDS011;43311;51.196;7.518;2024-02-21T07:00:22;13.90;;;5.15;;
57467;SDS011;43311;51.196;7.518;2024-02-21T07:02:48;16.75;;;5.15;;
57467;SDS011;43311;51.196;7.518;2024-02-21T07:05:13;15.43;;;4.93;;
57467;SDS011;43311;51.196;7.518;2024-02-21T07:07:38;23.75;;;5.30;;
57467;SDS011;43311;51.196;7.518;2024-02-21T07:10:05;13.02;;;5.30;;
57467;SDS011;43311;51.196;7.518;2024-02-21T07:12:32;14.18;;;5.18;;
57467;SDS011;43311;51.196;7.518;2024-02-21T07:14:57;15.18;;;5.43;;
57467;SDS011;43311;51.196;7.518;2024-02-21T07:17:22;17.35;;;5.45;;
57467;SDS011;43311;51.196;7.518;2024-02-21T07:19:48;13.85;;;4.70;;
57467;SDS011;43311;51.196;7.518;2024-02-21T07:22:13;14.88;;;4.82;;
57467;SDS011;43311;51.196;7.518;2024-02-21T07:24:38;15.50;;;4.90;;
57467;SDS011;43311;51.196;7.518;2024-02-21T07:27:04;13.77;;;4.85;;
57467;SDS011;43311;51.196;7.518;2024-02-21T07:29:32;14.80;;;4.63;;
57467;SDS011;43311;51.196;7.518;2024-02-21T07:31:57;15.48;;;5.35;;
57467;SDS011;43311;51.196;7.518;2024-02-21T07:34:24;17.92;;;5.28;;
57467;SDS011;43311;51.196;7.518;2024-02-21T07:36:49;11.27;;;4.57;;
57467;SDS011;43311;51.196;7.518;2024-02-21T07:39:15;12.23;;;4.70;;
57467;SDS011;43311;51.196;7.518;2024-02-21T07:41:41;17.08;;;5.32;;
57467;SDS011;43311;51.196;7.518;2024-02-21T07:44:08;13.55;;;4.80;;
57467;SDS011;43311;51.196;7.518;2024-02-21T07:46:34;18.63;;;6.40;;
57467;SDS011;43311;51.196;7.518;2024-02-21T07:49:00;14.88;;;4.97;;
57467;SDS011;43311;51.196;7.518;2024-02-21T07:51:28;14.82;;;4.75;;
57467;SDS011;43311;51.196;7.518;2024-02-21T07:53:53;13.00;;;4.70;;
57467;SDS011;43311;51.196;7.518;2024-02-21T07:56:19;20.45;;;5.25;;
57467;SDS011;43311;51.196;7.518;2024-02-21T07:58:44;17.45;;;6.00;;
57467;SDS011;43311;51.196;7.518;2024-02-21T08:01:10;14.20;;;5.20;;
57467;SDS011;43311;51.196;7.518;2024-02-21T08:03:35;10.93;;;5.15;;
57467;SDS011;43311;51.196;7.518;2024-02-21T08:06:01;13.82;;;3.47;;
57467;SDS011;43311;51.196;7.518;2024-02-21T08:08:27;12.30;;;4.05;;
57467;SDS011;43311;51.196;7.518;2024-02-21T08:10:53;16.83;;;5.00;;
57467;SDS011;43311;51.196;7.518;2024-02-21T08:13:18;13.23;;;4.13;;
57467;SDS011;43311;51.196;7.518;2024-02-21T08:15:43;21.08;;;4.45;;
57467;SDS011;43311;51.196;7.518;2024-02-21T08:18:09;13.23;;;3.78;;
57467;SDS011;43311;51.196;7.518;2024-02-21T08:20:34;13.35;;;4.25;;
57467;SDS011;43311;51.196;7.518;2024-02-21T08:23:00;12.05;;;4.10;;
57467;SDS011;43311;51.196;7.518;2024-02-21T08:25:25;11.80;;;3.72;;
57467;SDS011;43311;51.196;7.518;2024-02-21T08:27:51;14.43;;;4.20;;
57467;SDS011;43311;51.196;7.518;2024-02-21T08:30:19;13.48;;;4.05;;
57467;SDS011;43311;51.196;7.518;2024-02-21T08:32:45;7.82;;;3.83;;
57467;SDS011;43311;51.196;7.518;2024-02-21T08:35:10;10.48;;;3.97;;
57467;SDS011;43311;51.196;7.518;2024-02-21T08:37:37;13.90;;;3.95;;
57467;SDS011;43311;51.196;7.518;2024-02-21T08:40:02;11.73;;;3.80;;
57467;SDS011;43311;51.196;7.518;2024-02-21T08:42:33;12.35;;;3.83;;
57467;SDS011;43311;51.196;7.518;2024-02-21T08:45:00;10.43;;;4.20;;
57467;SDS011;43311;51.196;7.518;2024-02-21T08:47:25;12.90;;;4.63;;
57467;SDS011;43311;51.196;7.518;2024-02-21T08:49:50;14.55;;;5.07;;
57467;SDS011;43311;51.196;7.518;2024-02-21T08:52:16;12.85;;;3.95;;
57467;SDS011;43311;51.196;7.518;2024-02-21T08:54:41;13.65;;;4.20;;
57467;SDS011;43311;51.196;7.518;2024-02-21T08:57:06;11.38;;;4.18;;
57467;SDS011;43311;51.196;7.518;2024-02-21T08:59:32;14.55;;;4.15;;
57467;SDS011;43311;51.196;7.518;2024-02-21T09:01:58;12.85;;;4.97;;
57467;SDS011;43311;51.196;7.518;2024-02-21T09:04:23;10.93;;;4.45;;
57467;SDS011;43311;51.196;7.518;2024-02-21T09:06:48;12.02;;;4.03;;
57467;SDS011;43311;51.196;7.518;2024-02-21T09:09:14;15.88;;;5.60;;
57467;SDS011;43311;51.196;7.518;2024-02-21T09:11:39;12.40;;;4.03;;
57467;SDS011;43311;51.196;7.518;2024-02-21T09:14:05;9.43;;;3.70;;
57467;SDS011;43311;51.196;7.518;2024-02-21T09:16:31;17.17;;;4.65;;
57467;SDS011;43311;51.196;7.518;2024-02-21T09:18:57;10.75;;;4.20;;
57467;SDS011;43311;51.196;7.518;2024-02-21T09:21:22;16.52;;;4.38;;
57467;SDS011;43311;51.196;7.518;2024-02-21T09:23:48;16.33;;;4.63;;
57467;SDS011;43311;51.196;7.518;2024-02-21T09:26:13;15.10;;;3.85;;
57467;SDS011;43311;51.196;7.518;2024-02-21T09:28:41;18.52;;;4.65;;
57467;SDS011;43311;51.196;7.518;2024-02-21T09:31:07;11.00;;;4.15;;
57467;SDS011;43311;51.196;7.518;2024-02-21T09:33:32;20.83;;;4.20;;
57467;SDS011;43311;51.196;7.518;2024-02-21T09:35:58;16.20;;;5.13;;
57467;SDS011;43311;51.196;7.518;2024-02-21T09:38:24;24.08;;;5.35;;
57467;SDS011;43311;51.196;7.518;2024-02-21T09:41:31;14.00;;;4.20;;
57467;SDS011;43311;51.196;7.518;2024-02-21T09:43:42;15.60;;;4.38;;
57467;SDS011;43311;51.196;7.518;2024-02-21T09:46:13;17.33;;;4.57;;
57467;SDS011;43311;51.196;7.518;2024-02-21T09:48:48;16.45;;;4.95;;
57467;SDS011;43311;51.196;7.518;2024-02-21T09:51:34;12.93;;;3.78;;
57467;SDS011;43311;51.196;7.518;2024-02-21T09:54:01;13.18;;;3.72;;
57467;SDS011;43311;51.196;7.518;2024-02-21T09:56:28;12.45;;;4.72;;
57467;SDS011;43311;51.196;7.518;2024-02-21T09:58:53;14.43;;;4.15;;
57467;SDS011;43311;51.196;7.518;2024-02-21T10:01:19;12.98;;;4.05;;
57467;SDS011;43311;51.196;7.518;2024-02-21T10:03:44;10.70;;;4.50;;
57467;SDS011;43311;51.196;7.518;2024-02-21T10:06:10;13.18;;;4.25;;
57467;SDS011;43311;51.196;7.518;2024-02-21T10:08:35;12.25;;;3.60;;
57467;SDS011;43311;51.196;7.518;2024-02-21T10:11:00;15.90;;;4.20;;
57467;SDS011;43311;51.196;7.518;2024-02-21T10:13:28;18.33;;;4.47;;
57467;SDS011;43311;51.196;7.518;2024-02-21T10:16:04;12.30;;;4.38;;
57467;SDS011;43311;51.196;7.518;2024-02-21T10:18:33;15.30;;;4.50;;
57467;SDS011;43311;51.196;7.518;2024-02-21T10:21:06;9.85;;;3.80;;
57467;SDS011;43311;51.196;7.518;2024-02-21T10:23:46;12.52;;;4.57;;
57467;SDS011;43311;51.196;7.518;2024-02-21T10:26:14;16.48;;;4.45;;
57467;SDS011;43311;51.196;7.518;2024-02-21T10:28:39;14.52;;;4.35;;
57467;SDS011;43311;51.196;7.518;2024-02-21T10:31:10;8.65;;;4.65;;
57467;SDS011;43311;51.196;7.518;2024-02-21T10:33:36;13.30;;;4.43;;
57467;SDS011;43311;51.196;7.518;2024-02-21T10:36:06;11.02;;;4.60;;
57467;SDS011;43311;51.196;7.518;2024-02-21T10:38:36;20.60;;;4.57;;
57467;SDS011;43311;51.196;7.518;2024-02-21T10:41:03;10.35;;;3.90;;
57467;SDS011;43311;51.196;7.518;2024-02-21T10:43:30;17.25;;;3.88;;
57467;SDS011;43311;51.196;7.518;2024-02-21T10:46:02;11.65;;;4.03;;
57467;SDS011;43311;51.196;7.518;2024-02-21T10:48:32;9.25;;;4.45;;
57467;SDS011;43311;51.196;7.518;2024-02-21T10:56:38;17.88;;;3.90;;
57467;SDS011;43311;51.196;7.518;2024-02-21T10:59:05;12.70;;;4.13;;
57467;SDS011;43311;51.196;7.518;2024-02-21T11:01:31;11.90;;;3.35;;
57467;SDS011;43311;51.196;7.518;2024-02-21T11:03:58;13.15;;;7.10;;
57467;SDS011;43311;51.196;7.518;2024-02-21T11:06:27;10.88;;;3.55;;
57467;SDS011;43311;51.196;7.518;2024-02-21T11:09:06;12.57;;;3.83;;
57467;SDS011;43311;51.196;7.518;2024-02-21T11:11:37;17.70;;;4.65;;
57467;SDS011;43311;51.196;7.518;2024-02-21T11:14:11;12.85;;;4.30;;
57467;SDS011;43311;51.196;7.518;2024-02-21T11:16:43;17.70;;;4.25;;
57467;SDS011;43311;51.196;7.518;2024-02-21T11:19:27;19.83;;;5.75;;
57467;SDS011;43311;51.196;7.518;2024-02-21T11:21:54;10.30;;;3.75;;
57467;SDS011;43311;51.196;7.518;2024-02-21T11:24:25;12.77;;;4.03;;
57467;SDS011;43311;51.196;7.518;2024-02-21T11:26:54;15.00;;;3.90;;
57467;SDS011;43311;51.196;7.518;2024-02-21T11:29:24;11.85;;;3.85;;
57467;SDS011;43311;51.196;7.518;2024-02-21T11:31:50;11.07;;;3.67;;
57467;SDS011;43311;51.196;7.518;2024-02-21T11:34:19;11.25;;;4.18;;
57467;SDS011;43311;51.196;7.518;2024-02-21T11:39:24;10.15;;;3.75;;
57467;SDS011;43311;51.196;7.518;2024-02-21T11:42:06;10.32;;;3.22;;
57467;SDS011;43311;51.196;7.518;2024-02-21T11:44:33;10.88;;;3.10;;
57467;SDS011;43311;51.196;7.518;2024-02-21T11:47:08;15.43;;;4.15;;
57467;SDS011;43311;51.196;7.518;2024-02-21T11:52:06;11.43;;;4.28;;
57467;SDS011;43311;51.196;7.518;2024-02-21T11:54:32;14.38;;;3.30;;
57467;SDS011;43311;51.196;7.518;2024-02-21T11:56:59;10.95;;;4.07;;
57467;SDS011;43311;51.196;7.518;2024-02-21T11:59:25;14.15;;;3.65;;
57467;SDS011;43311;51.196;7.518;2024-02-21T12:01:50;8.80;;;3.15;;
57467;SDS011;43311;51.196;7.518;2024-02-21T12:04:17;13.15;;;4.10;;
57467;SDS011;43311;51.196;7.518;2024-02-21T12:06:44;11.35;;;3.90;;
57467;SDS011;43311;51.196;7.518;2024-02-21T12:09:13;15.10;;;3.80;;
57467;SDS011;43311;51.196;7.518;2024-02-21T12:11:39;14.13;;;3.78;;
57467;SDS011;43311;51.196;7.518;2024-02-21T12:14:05;10.43;;;3.78;;
57467;SDS011;43311;51.196;7.518;2024-02-21T12:16:30;14.27;;;4.13;;
57467;SDS011;43311;51.196;7.518;2024-02-21T12:18:57;10.18;;;3.95;;
57467;SDS011;43311;51.196;7.518;2024-02-21T12:21:24;12.82;;;4.15;;
57467;SDS011;43311;51.196;7.518;2024-02-21T12:23:51;11.35;;;3.20;;
57467;SDS011;43311;51.196;7.518;2024-02-21T12:26:16;13.02;;;3.88;;
57467;SDS011;43311;51.196;7.518;2024-02-21T12:28:41;12.75;;;3.92;;
57467;SDS011;43311;51.196;7.518;2024-02-21T12:31:07;12.38;;;3.85;;
57467;SDS011;43311;51.196;7.518;2024-02-21T12:33:32;11.18;;;3.50;;
57467;SDS011;43311;51.196;7.518;2024-02-21T12:35:58;9.93;;;3.30;;
57467;SDS011;43311;51.196;7.518;2024-02-21T12:38:23;10.23;;;3.05;;
57467;SDS011;43311;51.196;7.518;2024-02-21T12:40:49;13.93;;;4.40;;
57467;SDS011;43311;51.196;7.518;2024-02-21T12:43:14;9.68;;;3.72;;
57467;SDS011;43311;51.196;7.518;2024-02-21T12:45:39;11.43;;;3.65;;
57467;SDS011;43311;51.196;7.518;2024-02-21T12:48:05;12.30;;;3.92;;
57467;SDS011;43311;51.196;7.518;2024-02-21T12:50:30;20.23;;;4.95;;
57467;SDS011;43311;51.196;7.518;2024-02-21T12:52:56;11.30;;;5.00;;
57467;SDS011;43311;51.196;7.518;2024-02-21T12:55:23;15.00;;;4.38;;
57467;SDS011;43311;51.196;7.518;2024-02-21T12:57:48;10.57;;;3.83;;
57467;SDS011;43311;51.196;7.518;2024-02-21T13:00:14;11.32;;;4.78;;
57467;SDS011;43311;51.196;7.518;2024-02-21T13:02:40;8.90;;;4.32;;
57467;SDS011;43311;51.196;7.518;2024-02-21T13:05:05;11.07;;;4.13;;
57467;SDS011;43311;51.196;7.518;2024-02-21T13:07:32;13.93;;;4.32;;
57467;SDS011;43311;51.196;7.518;2024-02-21T13:09:57;15.45;;;4.53;;
57467;SDS011;43311;51.196;7.518;2024-02-21T13:12:23;8.50;;;4.22;;
57467;SDS011;43311;51.196;7.518;2024-02-21T13:14:51;12.32;;;3.70;;
57467;SDS011;43311;51.196;7.518;2024-02-21T13:17:16;11.52;;;4.82;;
57467;SDS011;43311;51.196;7.518;2024-02-21T13:19:42;15.65;;;4.57;;
57467;SDS011;43311;51.196;7.518;2024-02-21T13:22:07;11.13;;;3.88;;
57467;SDS011;43311;51.196;7.518;2024-02-21T13:24:32;11.38;;;4.38;;
57467;SDS011;43311;51.196;7.518;2024-02-21T13:26:58;11.57;;;4.13;;
57467;SDS011;43311;51.196;7.518;2024-02-21T13:29:24;19.75;;;4.88;;
57467;SDS011;43311;51.196;7.518;2024-02-21T13:31:49;10.93;;;3.60;;
57467;SDS011;43311;51.196;7.518;2024-02-21T13:34:15;10.95;;;3.35;;
57467;SDS011;43311;51.196;7.518;2024-02-21T13:36:42;12.35;;;3.95;;
57467;SDS011;43311;51.196;7.518;2024-02-21T13:39:07;11.27;;;4.45;;
57467;SDS011;43311;51.196;7.518;2024-02-21T13:41:33;11.68;;;4.40;;
57467;SDS011;43311;51.196;7.518;2024-02-21T13:43:59;12.35;;;3.78;;
57467;SDS011;43311;51.196;7.518;2024-02-21T13:46:28;10.23;;;3.53;;
57467;SDS011;43311;51.196;7.518;2024-02-21T13:48:54;12.25;;;4.22;;
57467;SDS011;43311;51.196;7.518;2024-02-21T13:51:29;10.15;;;3.65;;
57467;SDS011;43311;51.196;7.518;2024-02-21T13:53:55;7.60;;;3.25;;
57467;SDS011;43311;51.196;7.518;2024-02-21T13:56:20;11.40;;;3.63;;
57467;SDS011;43311;51.196;7.518;2024-02-21T13:58:45;14.35;;;3.28;;
57467;SDS011;43311;51.196;7.518;2024-02-21T14:01:11;10.35;;;3.67;;
57467;SDS011;43311;51.196;7.518;2024-02-21T14:03:36;8.18;;;3.28;;
57467;SDS011;43311;51.196;7.518;2024-02-21T14:06:01;10.30;;;3.60;;
57467;SDS011;43311;51.196;7.518;2024-02-21T14:08:27;7.80;;;3.38;;
57467;SDS011;43311;51.196;7.518;2024-02-21T14:10:52;10.23;;;3.55;;
57467;SDS011;43311;51.196;7.518;2024-02-21T14:13:18;10.35;;;4.00;;
57467;SDS011;43311;51.196;7.518;2024-02-21T14:15:44;8.30;;;3.20;;
57467;SDS011;43311;51.196;7.518;2024-02-21T14:18:11;7.82;;;2.75;;
57467;SDS011;43311;51.196;7.518;2024-02-21T14:20:38;10.50;;;3.05;;
57467;SDS011;43311;51.196;7.518;2024-02-21T14:23:04;8.40;;;2.88;;
57467;SDS011;43311;51.196;7.518;2024-02-21T14:25:29;10.77;;;3.78;;
57467;SDS011;43311;51.196;7.518;2024-02-21T14:27:55;17.40;;;4.05;;
57467;SDS011;43311;51.196;7.518;2024-02-21T14:30:20;10.60;;;3.70;;
57467;SDS011;43311;51.196;7.518;2024-02-21T14:32:45;9.63;;;3.50;;
57467;SDS011;43311;51.196;7.518;2024-02-21T14:35:11;15.45;;;3.08;;
57467;SDS011;43311;51.196;7.518;2024-02-21T14:37:36;10.75;;;2.97;;
57467;SDS011;43311;51.196;7.518;2024-02-21T14:40:02;10.45;;;2.97;;
57467;SDS011;43311;51.196;7.518;2024-02-21T14:42:28;16.02;;;3.47;;
57467;SDS011;43311;51.196;7.518;2024-02-21T14:44:54;15.02;;;2.90;;